createdAt,value
2023-02-21T00:00:56.509Z,70.11
2023-02-21T00:03:41.670Z,70.32
2023-02-21T00:06:27.764Z,70.21
2023-02-21T00:09:13.025Z,70.47
2023-02-21T00:12:02.858Z,70.11
2023-02-21T00:14:48.147Z,70.12
2023-02-21T00:17:33.696Z,70.47
2023-02-21T00:20:18.897Z,70.40
2023-02-21T00:23:05.047Z,70.58
2023-02-21T00:25:50.346Z,69.90
2023-02-21T00:28:35.669Z,70.49
2023-02-21T00:31:21.007Z,70.36
2023-02-21T00:34:06.260Z,70.12
2023-02-21T00:36:51.691Z,70.47
2023-02-21T00:39:36.858Z,70.51
2023-02-21T00:42:22.728Z,70.34
2023-02-21T00:45:08.160Z,70.48
2023-02-21T00:47:53.335Z,70.05
2023-02-21T00:50:38.703Z,70.34
2023-02-21T00:53:23.926Z,70.26
2023-02-21T00:56:09.214Z,70.25
2023-02-21T00:58:54.429Z,70.48
2023-02-21T01:01:39.648Z,69.75
2023-02-21T01:04:24.927Z,70.48
2023-02-21T01:07:10.076Z,70.64
2023-02-21T01:09:55.417Z,70.12
2023-02-21T01:12:40.552Z,70.41
2023-02-21T01:15:26.424Z,70.13
2023-02-21T01:18:11.697Z,69.95
2023-02-21T01:20:56.877Z,70.36
2023-02-21T01:23:42.178Z,70.35
2023-02-21T01:26:28.444Z,69.85
2023-02-21T01:29:13.668Z,69.63
2023-02-21T01:31:58.929Z,69.79
2023-02-21T01:34:43.966Z,70.07
2023-02-21T01:37:29.261Z,69.86
2023-02-21T01:40:14.443Z,69.91
2023-02-21T01:42:59.679Z,69.52
2023-02-21T01:45:50.596Z,69.89
2023-02-21T01:48:41.055Z,71.02
2023-02-21T01:51:30.824Z,70.64
2023-02-21T01:54:16.961Z,70.36
2023-02-21T01:57:02.283Z,70.68
2023-02-21T01:59:47.981Z,70.06
2023-02-21T02:02:47.457Z,70.49
2023-02-21T02:05:33.216Z,70.23
2023-02-21T02:08:18.382Z,70.71
2023-02-21T02:11:08.703Z,70.37
2023-02-21T02:13:50.186Z,69.93
2023-02-21T02:16:51.680Z,69.77
2023-02-21T02:20:04.757Z,69.42
2023-02-21T02:22:46.254Z,69.36
2023-02-21T02:26:17.707Z,69.63
2023-02-21T02:29:29.047Z,69.51
2023-02-21T02:32:21.117Z,69.36
2023-02-21T02:35:27.465Z,70.03
2023-02-21T02:38:04.153Z,69.61
2023-02-21T02:40:42.267Z,69.68
2023-02-21T02:43:22.181Z,69.29
2023-02-21T02:46:09.492Z,68.77
2023-02-21T02:48:53.489Z,68.92
2023-02-21T02:51:21.316Z,69.33
2023-02-21T02:53:47.785Z,69.70
2023-02-21T02:56:17.068Z,69.54
2023-02-21T02:58:56.739Z,69.46
2023-02-21T03:01:51.683Z,69.95
2023-02-21T03:05:03.312Z,69.35
2023-02-21T03:07:55.534Z,69.85
2023-02-21T03:10:44.942Z,69.57
2023-02-21T03:13:47.480Z,69.31
2023-02-21T03:16:48.251Z,69.78
2023-02-21T03:19:24.248Z,70.50
2023-02-21T03:22:05.536Z,70.48
2023-02-21T03:24:35.597Z,70.46
2023-02-21T03:27:07.077Z,70.11
2023-02-21T03:29:37.312Z,69.80
2023-02-21T03:32:26.804Z,69.85
2023-02-21T03:34:53.889Z,70.32
2023-02-21T03:37:42.998Z,69.62
2023-02-21T03:40:23.812Z,69.73
2023-02-21T03:42:55.776Z,69.65
2023-02-21T03:45:23.206Z,69.62
2023-02-21T03:47:49.748Z,69.49
2023-02-21T03:50:16.466Z,69.06
2023-02-21T03:52:42.999Z,69.08
2023-02-21T03:55:10.680Z,69.16
2023-02-21T03:57:37.158Z,69.40
2023-02-21T04:00:04.658Z,69.50
2023-02-21T04:02:31.240Z,69.85
2023-02-21T04:04:57.708Z,69.89
2023-02-21T04:07:24.300Z,70.33
2023-02-21T04:09:50.854Z,69.97
2023-02-21T04:12:17.384Z,70.14
2023-02-21T04:14:43.841Z,69.99
2023-02-21T04:17:10.392Z,70.16
2023-02-21T04:19:37.033Z,70.19
2023-02-21T04:22:03.530Z,69.75
2023-02-21T04:24:30.137Z,69.96
2023-02-21T04:26:56.696Z,69.94
2023-02-21T04:29:23.129Z,69.82
2023-02-21T04:31:49.678Z,69.59
2023-02-21T04:34:16.288Z,69.91
2023-02-21T04:36:43.423Z,70.03
2023-02-21T04:39:10.444Z,70.03
2023-02-21T04:41:37.040Z,69.96
2023-02-21T04:44:03.732Z,69.58
2023-02-21T04:46:30.328Z,69.65
2023-02-21T04:48:56.861Z,69.50
2023-02-21T04:51:26.061Z,69.82
2023-02-21T04:53:54.387Z,69.94
2023-02-21T04:56:24.963Z,69.68
2023-02-21T04:58:51.739Z,70.08
2023-02-21T05:01:20.755Z,69.79
2023-02-21T05:03:48.233Z,69.50
2023-02-21T05:06:23.953Z,69.59
2023-02-21T05:08:51.083Z,70.19
2023-02-21T05:11:21.121Z,70.25
2023-02-21T05:13:48.298Z,70.30
2023-02-21T05:16:15.810Z,70.07
2023-02-21T05:18:43.913Z,70.67
2023-02-21T05:21:10.383Z,70.48
2023-02-21T05:23:39.891Z,70.07
2023-02-21T05:26:13.684Z,69.98
2023-02-21T05:28:41.048Z,69.99
2023-02-21T05:31:08.752Z,70.31
2023-02-21T05:33:35.442Z,70.55
2023-02-21T05:36:02.854Z,70.60
2023-02-21T05:38:29.756Z,71.24
2023-02-21T05:40:56.245Z,71.38
2023-02-21T05:43:23.064Z,71.27
2023-02-21T05:45:49.626Z,70.67
2023-02-21T05:48:16.277Z,70.15
2023-02-21T05:50:42.823Z,70.25
2023-02-21T05:53:10.361Z,70.83
2023-02-21T05:55:37.693Z,70.83
2023-02-21T05:58:04.469Z,71.01
2023-02-21T06:00:31.595Z,70.71
2023-02-21T06:02:58.153Z,70.52
2023-02-21T06:05:24.779Z,69.97
2023-02-21T06:07:51.821Z,69.95
2023-02-21T06:10:19.757Z,70.56
2023-02-21T06:12:46.897Z,71.25
2023-02-21T06:15:13.634Z,71.27
2023-02-21T06:17:42.339Z,71.97
2023-02-21T06:20:14.636Z,71.88
2023-02-21T06:22:41.202Z,71.95
2023-02-21T06:25:08.711Z,71.52
2023-02-21T06:27:35.460Z,70.89
2023-02-21T06:30:03.651Z,70.86
2023-02-21T06:32:30.238Z,70.72
2023-02-21T06:34:56.963Z,70.99
2023-02-21T06:37:23.837Z,70.71
2023-02-21T06:39:50.357Z,70.70
2023-02-21T06:42:18.431Z,70.39
2023-02-21T06:44:49.821Z,70.92
2023-02-21T06:47:17.515Z,71.01
2023-02-21T06:49:44.325Z,71.28
2023-02-21T06:52:11.280Z,71.08
2023-02-21T06:54:38.013Z,71.36
2023-02-21T06:57:05.697Z,71.65
2023-02-21T06:59:32.833Z,72.10
2023-02-21T07:01:59.588Z,71.70
2023-02-21T07:04:26.209Z,72.04
2023-02-21T07:06:53.113Z,72.52
2023-02-21T07:09:19.605Z,72.77
2023-02-21T07:11:47.092Z,72.67
2023-02-21T07:14:14.584Z,72.65
2023-02-21T07:16:41.184Z,72.82
2023-02-21T07:19:07.808Z,72.83
2023-02-21T07:21:34.308Z,72.65
2023-02-21T07:24:00.911Z,73.19
2023-02-21T07:26:27.390Z,73.00
2023-02-21T07:28:53.896Z,72.60
2023-02-21T07:31:20.916Z,72.34
2023-02-21T07:33:47.583Z,71.81
2023-02-21T07:36:14.150Z,71.52
2023-02-21T07:38:40.724Z,71.58
2023-02-21T07:41:07.193Z,71.39
2023-02-21T07:43:33.750Z,70.98
2023-02-21T07:46:01.062Z,70.63
2023-02-21T07:48:27.856Z,70.72
2023-02-21T07:50:54.405Z,71.08
2023-02-21T07:53:20.946Z,71.07
2023-02-21T07:55:47.511Z,71.22
2023-02-21T07:58:14.131Z,71.24
2023-02-21T08:00:40.807Z,71.54
2023-02-21T08:03:07.643Z,72.07
2023-02-21T08:05:34.172Z,72.17
2023-02-21T08:08:00.659Z,71.65
2023-02-21T08:10:29.308Z,71.33
2023-02-21T08:12:55.846Z,71.14
2023-02-21T08:15:23.077Z,71.00
2023-02-21T08:17:51.063Z,70.52
2023-02-21T08:20:19.332Z,71.38
2023-02-21T08:22:46.416Z,71.76
2023-02-21T08:25:16.506Z,71.44
2023-02-21T08:27:43.738Z,71.29
2023-02-21T08:30:14.545Z,70.80
2023-02-21T08:32:41.645Z,71.22
2023-02-21T08:35:08.551Z,71.14
2023-02-21T08:37:37.237Z,70.50
2023-02-21T08:40:05.124Z,70.68
2023-02-21T08:42:31.615Z,70.70
2023-02-21T08:44:58.253Z,71.31
2023-02-21T08:47:24.739Z,71.02
2023-02-21T08:49:51.342Z,70.56
2023-02-21T08:52:21.701Z,70.26
2023-02-21T08:54:48.282Z,70.46
2023-02-21T08:57:15.699Z,69.88
2023-02-21T08:59:45.068Z,69.54
2023-02-21T09:02:17.575Z,69.31
2023-02-21T09:04:46.842Z,69.17
2023-02-21T09:07:16.261Z,69.16
2023-02-21T09:09:42.821Z,69.57
2023-02-21T09:12:10.065Z,69.20
2023-02-21T09:14:39.371Z,68.95
2023-02-21T09:17:09.275Z,68.58
2023-02-21T09:19:35.975Z,68.73
2023-02-21T09:22:05.807Z,68.11
2023-02-21T09:24:32.386Z,67.22
2023-02-21T09:26:59.873Z,66.79
2023-02-21T09:29:31.618Z,66.77
2023-02-21T09:32:01.760Z,66.66
2023-02-21T09:34:29.161Z,66.86
2023-02-21T09:36:56.252Z,66.32
2023-02-21T09:39:23.988Z,66.32
2023-02-21T09:41:53.457Z,66.00
2023-02-21T09:44:26.024Z,66.26
2023-02-21T09:47:03.962Z,65.94
2023-02-21T09:49:37.267Z,66.64
2023-02-21T09:52:05.803Z,66.62
2023-02-21T09:54:40.775Z,65.96
2023-02-21T09:57:15.135Z,66.03
2023-02-21T09:59:41.817Z,65.89
2023-02-21T10:02:13.987Z,65.67
2023-02-21T10:05:07.430Z,64.57
2023-02-21T10:07:40.919Z,65.33
2023-02-21T10:10:21.677Z,65.00
2023-02-21T10:13:10.594Z,64.76
2023-02-21T10:15:50.374Z,64.47
2023-02-21T10:18:45.591Z,64.76
2023-02-21T10:21:25.081Z,65.16
2023-02-21T10:23:57.792Z,64.43
2023-02-21T10:26:29.809Z,64.14
2023-02-21T10:28:57.265Z,64.08
2023-02-21T10:31:36.594Z,63.87
2023-02-21T10:34:20.669Z,63.20
2023-02-21T10:36:50.187Z,63.76
2023-02-21T10:39:40.065Z,64.04
2023-02-21T10:42:18.463Z,64.05
2023-02-21T10:44:46.404Z,63.96
2023-02-21T10:47:28.989Z,63.34
2023-02-21T10:50:08.348Z,63.39
2023-02-21T10:52:50.742Z,63.75
2023-02-21T10:55:32.699Z,63.28
2023-02-21T10:58:09.846Z,63.32
2023-02-21T11:00:51.856Z,62.62
2023-02-21T11:03:18.303Z,62.99
2023-02-21T11:05:57.566Z,62.59
2023-02-21T11:08:42.938Z,61.79
2023-02-21T11:11:10.912Z,62.59
2023-02-21T11:13:38.119Z,62.94
2023-02-21T11:16:17.868Z,62.13
2023-02-21T11:18:45.541Z,62.73
2023-02-21T11:21:19.266Z,62.79
2023-02-21T11:24:03.778Z,62.82
2023-02-21T11:26:38.792Z,62.55
2023-02-21T11:29:15.082Z,62.76
2023-02-21T11:31:41.991Z,63.20
2023-02-21T11:34:13.585Z,63.33
2023-02-21T11:36:44.089Z,63.67
2023-02-21T11:39:27.837Z,64.10
2023-02-21T11:41:57.510Z,63.56
2023-02-21T11:44:31.490Z,63.12
2023-02-21T11:47:14.688Z,63.01
2023-02-21T11:50:08.374Z,63.21
2023-02-21T11:52:43.352Z,63.71
2023-02-21T11:55:19.568Z,63.16
2023-02-21T11:58:05.277Z,62.61
2023-02-21T12:01:07.007Z,62.20
2023-02-21T12:04:15.512Z,62.20
2023-02-21T12:06:58.149Z,62.83
2023-02-21T12:09:37.982Z,63.91
2023-02-21T12:12:32.667Z,63.29
2023-02-21T12:15:26.241Z,63.75
2023-02-21T12:18:32.861Z,63.07
2023-02-21T12:21:24.968Z,63.53
2023-02-21T12:23:51.386Z,63.74
2023-02-21T12:26:56.325Z,62.38
2023-02-21T12:29:53.724Z,63.53
2023-02-21T12:32:45.800Z,63.54
2023-02-21T12:35:49.391Z,62.97
2023-02-21T12:38:56.962Z,61.84
2023-02-21T12:42:04.347Z,61.60
2023-02-21T12:45:30.848Z,60.70
2023-02-21T12:48:25.165Z,62.32
2023-02-21T12:51:04.609Z,62.48
2023-02-21T12:53:42.885Z,62.74
2023-02-21T12:56:33.243Z,61.85
2023-02-21T12:59:11.488Z,62.17
2023-02-21T13:01:55.906Z,61.55
2023-02-21T13:04:46.655Z,61.72
2023-02-21T13:07:40.298Z,61.45
2023-02-21T13:10:19.485Z,61.54
2023-02-21T13:13:18.020Z,62.21
2023-02-21T13:15:48.466Z,62.45
2023-02-21T13:18:14.810Z,62.21
2023-02-21T13:20:48.610Z,62.76
2023-02-21T13:23:57.350Z,62.54
2023-02-21T13:26:58.647Z,62.74
2023-02-21T13:29:31.024Z,62.02
2023-02-21T13:32:19.920Z,61.51
2023-02-21T13:34:55.973Z,61.56
2023-02-21T13:37:28.252Z,61.54
2023-02-21T13:40:09.460Z,61.06
2023-02-21T13:42:39.411Z,60.71
2023-02-21T13:45:17.928Z,60.59
2023-02-21T13:48:07.261Z,60.88
2023-02-21T13:50:40.092Z,60.53
2023-02-21T13:53:19.121Z,60.01
2023-02-21T13:56:07.348Z,60.42
2023-02-21T13:58:49.155Z,60.70
2023-02-21T14:01:28.900Z,60.90
2023-02-21T14:03:59.645Z,60.76
2023-02-21T14:06:38.561Z,60.05
2023-02-21T14:09:17.467Z,60.72
2023-02-21T14:11:50.567Z,60.82
2023-02-21T14:14:39.588Z,61.24
2023-02-21T14:17:11.394Z,61.47
2023-02-21T14:19:48.545Z,60.93
2023-02-21T14:22:24.063Z,61.25
2023-02-21T14:25:05.822Z,61.32
2023-02-21T14:27:37.342Z,61.29
2023-02-21T14:30:12.942Z,60.98
2023-02-21T14:32:51.218Z,61.17
2023-02-21T14:35:24.002Z,61.42
2023-02-21T14:38:05.751Z,61.04
2023-02-21T14:40:32.482Z,61.52
2023-02-21T14:43:41.937Z,61.72
2023-02-21T14:46:31.900Z,62.09
2023-02-21T14:49:44.922Z,61.95
2023-02-21T14:52:43.325Z,61.70
2023-02-21T14:56:06.156Z,62.12
2023-02-21T15:01:55.498Z,62.25
2023-02-21T15:04:34.447Z,61.78
2023-02-21T15:07:23.256Z,61.75
2023-02-21T15:10:21.448Z,62.14
2023-02-21T15:13:01.277Z,62.80
2023-02-21T15:15:38.160Z,62.83
2023-02-21T15:18:10.871Z,63.03
2023-02-21T15:20:41.410Z,62.79
2023-02-21T15:23:20.563Z,62.84
2023-02-21T15:25:57.446Z,63.12
2023-02-21T15:28:31.117Z,63.42
2023-02-21T15:31:05.932Z,63.84
2023-02-21T15:33:37.451Z,63.78
2023-02-21T15:36:20.011Z,63.44
2023-02-21T15:39:20.273Z,63.50
2023-02-21T15:41:50.780Z,64.04
2023-02-21T15:44:26.728Z,63.54
2023-02-21T15:47:13.923Z,62.72
2023-02-21T15:49:59.879Z,63.20
2023-02-21T15:52:46.246Z,63.31
2023-02-21T15:55:18.609Z,64.01
2023-02-21T15:58:06.888Z,63.56
2023-02-21T16:00:46.588Z,63.91
2023-02-21T16:03:42.922Z,63.96
2023-02-21T16:06:28.094Z,64.27
2023-02-21T16:09:15.085Z,64.26
2023-02-21T16:11:57.859Z,64.42
2023-02-21T16:14:59.803Z,64.56
2023-02-21T16:17:30.795Z,65.34
2023-02-21T16:20:17.755Z,65.51
2023-02-21T16:25:57.933Z,65.63
2023-02-21T16:28:25.038Z,66.19
2023-02-21T16:30:52.347Z,65.77
2023-02-21T16:33:19.028Z,66.56
2023-02-21T16:35:45.648Z,65.99
2023-02-21T16:38:20.482Z,65.81
2023-02-21T16:40:48.088Z,66.10
2023-02-21T16:43:23.903Z,66.26
2023-02-21T16:45:54.827Z,66.57
2023-02-21T16:48:28.599Z,66.33
2023-02-21T16:50:55.586Z,66.79
2023-02-21T16:53:22.875Z,67.21
2023-02-21T16:55:51.507Z,67.06
2023-02-21T16:58:30.753Z,67.48
2023-02-21T17:01:12.822Z,67.13
2023-02-21T17:03:40.793Z,67.43
2023-02-21T17:06:07.786Z,67.39
2023-02-21T17:08:34.263Z,68.33
2023-02-21T17:11:00.816Z,68.26
2023-02-21T17:13:27.375Z,68.10
2023-02-21T17:15:54.800Z,68.32
2023-02-21T17:18:21.494Z,67.84
2023-02-21T17:20:48.121Z,67.99
2023-02-21T17:23:14.611Z,68.45
2023-02-21T17:25:41.283Z,68.52
2023-02-21T17:28:07.868Z,68.76
2023-02-21T17:30:34.637Z,68.49
2023-02-21T17:33:01.186Z,68.75
2023-02-21T17:35:28.470Z,68.17
2023-02-21T17:37:55.077Z,68.47
2023-02-21T17:40:23.832Z,68.63
2023-02-21T17:42:50.614Z,68.78
2023-02-21T17:45:19.834Z,68.85
2023-02-21T17:47:47.907Z,69.81
2023-02-21T17:50:15.361Z,69.85
2023-02-21T17:52:42.622Z,69.55
2023-02-21T17:55:21.162Z,69.55
2023-02-21T17:57:48.032Z,70.35
2023-02-21T18:00:24.629Z,70.66
2023-02-21T18:02:55.929Z,71.89
2023-02-21T18:05:22.913Z,71.16
2023-02-21T18:07:53.296Z,70.92
2023-02-21T18:10:24.234Z,70.32
2023-02-21T18:12:52.363Z,69.66
2023-02-21T18:15:29.413Z,69.22
2023-02-21T18:17:58.410Z,69.06
2023-02-21T18:20:24.970Z,69.43
2023-02-21T18:22:51.454Z,68.90
2023-02-21T18:25:21.042Z,69.37
2023-02-21T18:27:47.521Z,69.26
2023-02-21T18:30:14.285Z,68.93
2023-02-21T18:32:40.765Z,68.56
2023-02-21T18:35:07.391Z,68.93
2023-02-21T18:37:33.915Z,70.53
2023-02-21T18:40:00.460Z,70.49
2023-02-21T18:42:26.987Z,70.36
2023-02-21T18:44:53.749Z,70.08
2023-02-21T18:47:20.599Z,69.58
2023-02-21T18:49:48.427Z,69.09
2023-02-21T18:52:16.343Z,68.93
2023-02-21T18:54:51.193Z,69.13
2023-02-21T18:57:21.038Z,69.79
2023-02-21T18:59:48.220Z,69.94
2023-02-21T19:02:17.771Z,69.84
2023-02-21T19:04:45.053Z,69.77
2023-02-21T19:07:16.737Z,69.50
2023-02-21T19:09:46.808Z,69.05
2023-02-21T19:12:14.856Z,69.39
2023-02-21T19:14:42.345Z,68.85
2023-02-21T19:17:09.300Z,68.92
2023-02-21T19:19:37.360Z,69.37
2023-02-21T19:22:04.821Z,69.03
2023-02-21T19:24:31.293Z,69.08
2023-02-21T19:26:57.818Z,69.14
2023-02-21T19:29:24.283Z,69.19
2023-02-21T19:31:50.893Z,69.57
2023-02-21T19:34:17.481Z,69.46
2023-02-21T19:36:44.016Z,69.51
2023-02-21T19:39:11.651Z,70.30
2023-02-21T19:41:38.559Z,71.37
2023-02-21T19:44:05.525Z,71.18
2023-02-21T19:46:32.274Z,71.12
2023-02-21T19:48:59.671Z,71.52
2023-02-21T19:51:29.966Z,72.45
2023-02-21T19:53:58.783Z,72.62
2023-02-21T19:56:27.231Z,72.32
2023-02-21T19:58:53.695Z,71.66
2023-02-21T20:01:21.525Z,72.28
2023-02-21T20:03:50.126Z,71.40
2023-02-21T20:06:18.109Z,70.92
2023-02-21T20:08:48.076Z,70.79
2023-02-21T20:11:19.166Z,70.33
2023-02-21T20:13:45.846Z,70.17
2023-02-21T20:16:15.390Z,70.22
2023-02-21T20:18:46.674Z,69.85
2023-02-21T20:21:22.826Z,69.40
2023-02-21T20:23:49.634Z,69.48
2023-02-21T20:26:16.598Z,69.34
2023-02-21T20:28:43.283Z,69.56
2023-02-21T20:31:12.764Z,69.50
2023-02-21T20:33:39.965Z,69.66
2023-02-21T20:36:08.148Z,69.24
2023-02-21T20:38:37.580Z,69.41
2023-02-21T20:41:07.998Z,69.77
2023-02-21T20:43:35.509Z,69.93
2023-02-21T20:46:02.200Z,70.73
2023-02-21T20:48:28.669Z,71.12
2023-02-21T20:50:55.158Z,71.66
2023-02-21T20:53:21.676Z,72.06
2023-02-21T20:55:48.227Z,71.65
2023-02-21T20:58:14.755Z,70.93
2023-02-21T21:00:42.520Z,70.56
2023-02-21T21:03:09.875Z,70.21
2023-02-21T21:05:36.356Z,70.33
2023-02-21T21:08:02.892Z,70.32
2023-02-21T21:10:29.422Z,70.82
2023-02-21T21:12:56.895Z,70.82
2023-02-21T21:15:23.555Z,71.39
2023-02-21T21:17:50.325Z,71.64
2023-02-21T21:20:23.372Z,71.23
2023-02-21T21:22:50.643Z,71.44
2023-02-21T21:25:17.685Z,70.84
2023-02-21T21:27:44.986Z,71.11
2023-02-21T21:30:18.025Z,71.22
2023-02-21T21:32:45.081Z,70.95
2023-02-21T21:35:14.644Z,71.08
2023-02-21T21:37:44.304Z,70.93
2023-02-21T21:40:17.095Z,71.47
2023-02-21T21:42:48.684Z,71.74
2023-02-21T21:45:19.310Z,71.73
2023-02-21T21:47:48.981Z,71.42
2023-02-21T21:50:18.571Z,71.36
2023-02-21T21:52:52.180Z,71.13
2023-02-21T21:55:26.501Z,70.42
2023-02-21T21:57:55.815Z,70.16
2023-02-21T22:00:27.202Z,69.97
2023-02-21T22:03:01.777Z,69.63
2023-02-21T22:05:31.114Z,70.01
2023-02-21T22:07:58.901Z,70.19
2023-02-21T22:10:27.121Z,70.31
2023-02-21T22:12:56.493Z,70.20
2023-02-21T22:15:26.730Z,70.29
2023-02-21T22:17:54.787Z,70.24
2023-02-21T22:20:43.063Z,70.30
2023-02-21T22:23:11.376Z,71.13
2023-02-21T22:25:37.986Z,71.34
2023-02-21T22:28:10.374Z,70.98
2023-02-21T22:30:38.282Z,70.87
2023-02-21T22:33:08.272Z,70.33
2023-02-21T22:35:35.069Z,70.20
2023-02-21T22:38:02.212Z,69.97
2023-02-21T22:40:35.379Z,69.70
2023-02-21T22:43:10.903Z,69.66
2023-02-21T22:45:38.156Z,69.83
2023-02-21T22:48:07.767Z,70.47
2023-02-21T22:50:36.951Z,70.72
2023-02-21T22:53:08.287Z,70.99
2023-02-21T22:55:37.596Z,70.59
2023-02-21T22:58:09.316Z,70.92
2023-02-21T23:00:37.687Z,70.90
2023-02-21T23:03:12.931Z,71.09
2023-02-21T23:05:43.610Z,71.20
2023-02-21T23:08:12.818Z,71.25
2023-02-21T23:10:40.275Z,71.71
2023-02-21T23:13:13.955Z,71.67
2023-02-21T23:15:42.939Z,70.91
2023-02-21T23:18:11.602Z,71.30
2023-02-21T23:20:44.677Z,72.27
2023-02-21T23:23:12.554Z,72.16
2023-02-21T23:25:39.034Z,72.01
2023-02-21T23:28:13.375Z,72.00
2023-02-21T23:30:42.185Z,72.01
2023-02-21T23:33:33.862Z,72.08
2023-02-21T23:36:00.479Z,71.84
2023-02-21T23:38:28.546Z,71.25
2023-02-21T23:40:59.386Z,70.59
2023-02-21T23:43:30.904Z,70.32
2023-02-21T23:46:00.210Z,70.38
2023-02-21T23:48:26.979Z,70.17
2023-02-21T23:50:57.791Z,70.28
2023-02-21T23:53:28.262Z,70.77
2023-02-21T23:55:57.490Z,71.02
2023-02-21T23:58:27.778Z,70.75
